sensor_id;sensor_type;location;lat;lon;timestamp;P1;P2;P0
44350;PMS5003;62766;62.622;17.912;2023-03-26T00:00:56;7;6;
44350;PMS5003;62766;62.622;17.912;2023-03-26T00:03:25;3;3;
44350;PMS5003;62766;62.622;17.912;2023-03-26T00:06:00;9;5;
44350;PMS5003;62766;62.622;17.912;2023-03-26T00:08:30;7;6;
44350;PMS5003;62766;62.622;17.912;2023-03-26T00:10:58;5;5;
44350;PMS5003;62766;62.622;17.912;2023-03-26T00:13:27;6;6;
44350;PMS5003;62766;62.622;17.912;2023-03-26T00:15:56;5;3;
44350;PMS5003;62766;62.622;17.912;2023-03-26T00:18:25;3;3;
44350;PMS5003;62766;62.622;17.912;2023-03-26T00:20:53;5;5;
44350;PMS5003;62766;62.622;17.912;2023-03-26T00:23:22;2;2;
44350;PMS5003;62766;62.622;17.912;2023-03-26T00:25:51;5;2;
44350;PMS5003;62766;62.622;17.912;2023-03-26T00:28:20;1;1;
44350;PMS5003;62766;62.622;17.912;2023-03-26T00:33:24;7;1;
44350;PMS5003;62766;62.622;17.912;2023-03-26T00:35:53;1;1;
44350;PMS5003;62766;62.622;17.912;2023-03-26T00:38:24;2;2;
44350;PMS5003;62766;62.622;17.912;2023-03-26T00:40:54;1;1;
44350;PMS5003;62766;62.622;17.912;2023-03-26T00:43:22;1;1;
44350;PMS5003;62766;62.622;17.912;2023-03-26T00:45:52;1;1;
44350;PMS5003;62766;62.622;17.912;2023-03-26T00:48:22;1;1;
44350;PMS5003;62766;62.622;17.912;2023-03-26T00:50:50;1;1;
44350;PMS5003;62766;62.622;17.912;2023-03-26T00:53:19;5;3;
44350;PMS5003;62766;62.622;17.912;2023-03-26T00:55:48;3;2;
44350;PMS5003;62766;62.622;17.912;2023-03-26T00:58:16;3;3;
44350;PMS5003;62766;62.622;17.912;2023-03-26T01:00:46;1;1;
44350;PMS5003;62766;62.622;17.912;2023-03-26T01:03:18;2;2;
44350;PMS5003;62766;62.622;17.912;2023-03-26T01:05:49;1;1;
44350;PMS5003;62766;62.622;17.912;2023-03-26T01:08:22;1;1;
44350;PMS5003;62766;62.622;17.912;2023-03-26T01:10:55;1;1;
44350;PMS5003;62766;62.622;17.912;2023-03-26T01:13:25;0;0;
44350;PMS5003;62766;62.622;17.912;2023-03-26T01:15:53;1;1;
44350;PMS5003;62766;62.622;17.912;2023-03-26T01:18:22;1;1;
44350;PMS5003;62766;62.622;17.912;2023-03-26T01:20:52;3;2;
44350;PMS5003;62766;62.622;17.912;2023-03-26T01:23:25;1;1;
44350;PMS5003;62766;62.622;17.912;2023-03-26T01:26:00;5;2;
44350;PMS5003;62766;62.622;17.912;2023-03-26T01:28:34;1;1;
44350;PMS5003;62766;62.622;17.912;2023-03-26T01:31:06;2;2;
44350;PMS5003;62766;62.622;17.912;2023-03-26T01:33:40;7;3;
44350;PMS5003;62766;62.622;17.912;2023-03-26T01:36:15;2;2;
44350;PMS5003;62766;62.622;17.912;2023-03-26T01:38:51;1;1;
44350;PMS5003;62766;62.622;17.912;2023-03-26T01:41:28;1;1;
44350;PMS5003;62766;62.622;17.912;2023-03-26T01:44:02;2;1;
44350;PMS5003;62766;62.622;17.912;2023-03-26T01:46:38;2;1;
44350;PMS5003;62766;62.622;17.912;2023-03-26T01:49:06;2;2;
44350;PMS5003;62766;62.622;17.912;2023-03-26T01:51:35;4;1;
44350;PMS5003;62766;62.622;17.912;2023-03-26T01:54:05;6;5;
44350;PMS5003;62766;62.622;17.912;2023-03-26T01:56:39;4;1;
44350;PMS5003;62766;62.622;17.912;2023-03-26T01:59:21;2;1;
44350;PMS5003;62766;62.622;17.912;2023-03-26T02:02:10;2;1;
44350;PMS5003;62766;62.622;17.912;2023-03-26T02:04:41;1;1;
44350;PMS5003;62766;62.622;17.912;2023-03-26T02:07:18;1;1;
44350;PMS5003;62766;62.622;17.912;2023-03-26T02:09:53;4;1;
44350;PMS5003;62766;62.622;17.912;2023-03-26T02:12:26;2;2;
44350;PMS5003;62766;62.622;17.912;2023-03-26T02:14:58;1;1;
44350;PMS5003;62766;62.622;17.912;2023-03-26T02:17:27;1;1;
44350;PMS5003;62766;62.622;17.912;2023-03-26T02:19:56;1;1;
44350;PMS5003;62766;62.622;17.912;2023-03-26T02:22:25;1;1;
44350;PMS5003;62766;62.622;17.912;2023-03-26T02:24:54;0;0;
44350;PMS5003;62766;62.622;17.912;2023-03-26T02:27:22;4;2;
44350;PMS5003;62766;62.622;17.912;2023-03-26T02:29:51;4;4;
44350;PMS5003;62766;62.622;17.912;2023-03-26T02:32:20;1;1;
44350;PMS5003;62766;62.622;17.912;2023-03-26T02:34:49;1;1;
44350;PMS5003;62766;62.622;17.912;2023-03-26T02:37:18;4;2;
44350;PMS5003;62766;62.622;17.912;2023-03-26T02:39:46;2;1;
44350;PMS5003;62766;62.622;17.912;2023-03-26T02:42:15;5;2;
44350;PMS5003;62766;62.622;17.912;2023-03-26T02:44:44;2;1;
44350;PMS5003;62766;62.622;17.912;2023-03-26T02:47:13;1;1;
44350;PMS5003;62766;62.622;17.912;2023-03-26T02:49:41;2;1;
44350;PMS5003;62766;62.622;17.912;2023-03-26T02:52:10;1;1;
44350;PMS5003;62766;62.622;17.912;2023-03-26T02:54:39;4;4;
44350;PMS5003;62766;62.622;17.912;2023-03-26T02:57:08;1;1;
44350;PMS5003;62766;62.622;17.912;2023-03-26T02:59:36;1;1;
44350;PMS5003;62766;62.622;17.912;2023-03-26T03:02:05;1;1;
44350;PMS5003;62766;62.622;17.912;2023-03-26T03:04:34;1;1;
44350;PMS5003;62766;62.622;17.912;2023-03-26T03:07:03;1;1;
44350;PMS5003;62766;62.622;17.912;2023-03-26T03:09:32;1;1;
44350;PMS5003;62766;62.622;17.912;2023-03-26T03:12:01;4;2;
44350;PMS5003;62766;62.622;17.912;2023-03-26T03:14:30;4;1;
44350;PMS5003;62766;62.622;17.912;2023-03-26T03:16:58;0;0;
44350;PMS5003;62766;62.622;17.912;2023-03-26T03:19:27;1;1;
44350;PMS5003;62766;62.622;17.912;2023-03-26T03:21:56;1;1;
44350;PMS5003;62766;62.622;17.912;2023-03-26T03:24:25;5;2;
44350;PMS5003;62766;62.622;17.912;2023-03-26T03:26:53;2;2;
44350;PMS5003;62766;62.622;17.912;2023-03-26T03:29:22;2;2;
44350;PMS5003;62766;62.622;17.912;2023-03-26T03:31:51;1;1;
44350;PMS5003;62766;62.622;17.912;2023-03-26T03:34:20;0;0;
44350;PMS5003;62766;62.622;17.912;2023-03-26T03:36:50;4;1;
44350;PMS5003;62766;62.622;17.912;2023-03-26T03:39:19;4;2;
44350;PMS5003;62766;62.622;17.912;2023-03-26T03:41:48;2;2;
44350;PMS5003;62766;62.622;17.912;2023-03-26T03:44:17;5;2;
44350;PMS5003;62766;62.622;17.912;2023-03-26T03:46:45;2;2;
44350;PMS5003;62766;62.622;17.912;2023-03-26T03:49:14;5;2;
44350;PMS5003;62766;62.622;17.912;2023-03-26T03:51:43;1;1;
44350;PMS5003;62766;62.622;17.912;2023-03-26T03:54:12;4;4;
44350;PMS5003;62766;62.622;17.912;2023-03-26T03:56:41;2;1;
44350;PMS5003;62766;62.622;17.912;2023-03-26T03:59:10;2;2;
44350;PMS5003;62766;62.622;17.912;2023-03-26T04:03:20;4;4;
44350;PMS5003;62766;62.622;17.912;2023-03-26T04:05:49;5;4;
44350;PMS5003;62766;62.622;17.912;2023-03-26T04:08:18;2;2;
44350;PMS5003;62766;62.622;17.912;2023-03-26T04:10:50;2;2;
44350;PMS5003;62766;62.622;17.912;2023-03-26T04:13:19;5;5;
44350;PMS5003;62766;62.622;17.912;2023-03-26T04:15:48;5;5;
44350;PMS5003;62766;62.622;17.912;2023-03-26T04:18:17;2;2;
44350;PMS5003;62766;62.622;17.912;2023-03-26T04:20:45;4;2;
44350;PMS5003;62766;62.622;17.912;2023-03-26T04:23:15;8;8;
44350;PMS5003;62766;62.622;17.912;2023-03-26T04:25:45;4;4;
44350;PMS5003;62766;62.622;17.912;2023-03-26T04:28:23;6;6;
44350;PMS5003;62766;62.622;17.912;2023-03-26T04:30:55;2;2;
44350;PMS5003;62766;62.622;17.912;2023-03-26T04:33:25;5;5;
44350;PMS5003;62766;62.622;17.912;2023-03-26T04:35:56;2;2;
44350;PMS5003;62766;62.622;17.912;2023-03-26T04:38:25;8;8;
44350;PMS5003;62766;62.622;17.912;2023-03-26T04:40:54;6;4;
44350;PMS5003;62766;62.622;17.912;2023-03-26T04:43:22;5;5;
44350;PMS5003;62766;62.622;17.912;2023-03-26T04:45:51;8;8;
44350;PMS5003;62766;62.622;17.912;2023-03-26T04:48:20;9;9;
44350;PMS5003;62766;62.622;17.912;2023-03-26T04:50:49;8;5;
44350;PMS5003;62766;62.622;17.912;2023-03-26T04:53:19;10;9;
44350;PMS5003;62766;62.622;17.912;2023-03-26T04:55:49;6;5;
44350;PMS5003;62766;62.622;17.912;2023-03-26T04:58:22;6;6;
44350;PMS5003;62766;62.622;17.912;2023-03-26T05:00:51;5;5;
44350;PMS5003;62766;62.622;17.912;2023-03-26T05:03:20;5;5;
44350;PMS5003;62766;62.622;17.912;2023-03-26T05:05:49;6;6;
44350;PMS5003;62766;62.622;17.912;2023-03-26T05:08:18;5;5;
44350;PMS5003;62766;62.622;17.912;2023-03-26T05:10:46;6;6;
44350;PMS5003;62766;62.622;17.912;2023-03-26T05:13:15;8;8;
44350;PMS5003;62766;62.622;17.912;2023-03-26T05:15:43;5;5;
44350;PMS5003;62766;62.622;17.912;2023-03-26T05:18:12;6;6;
44350;PMS5003;62766;62.622;17.912;2023-03-26T05:20:42;5;5;
44350;PMS5003;62766;62.622;17.912;2023-03-26T05:23:12;5;5;
44350;PMS5003;62766;62.622;17.912;2023-03-26T05:25:40;4;4;
44350;PMS5003;62766;62.622;17.912;2023-03-26T05:28:09;6;5;
44350;PMS5003;62766;62.622;17.912;2023-03-26T05:30:38;5;4;
44350;PMS5003;62766;62.622;17.912;2023-03-26T05:33:07;4;4;
44350;PMS5003;62766;62.622;17.912;2023-03-26T05:35:36;6;5;
44350;PMS5003;62766;62.622;17.912;2023-03-26T05:38:04;6;4;
44350;PMS5003;62766;62.622;17.912;2023-03-26T05:40:33;2;2;
44350;PMS5003;62766;62.622;17.912;2023-03-26T05:43:02;3;3;
44350;PMS5003;62766;62.622;17.912;2023-03-26T05:45:30;6;5;
44350;PMS5003;62766;62.622;17.912;2023-03-26T05:47:59;5;5;
44350;PMS5003;62766;62.622;17.912;2023-03-26T05:50:28;3;3;
44350;PMS5003;62766;62.622;17.912;2023-03-26T05:52:57;5;5;
44350;PMS5003;62766;62.622;17.912;2023-03-26T05:55:26;3;3;
44350;PMS5003;62766;62.622;17.912;2023-03-26T05:57:55;5;3;
44350;PMS5003;62766;62.622;17.912;2023-03-26T06:00:23;5;5;
44350;PMS5003;62766;62.622;17.912;2023-03-26T06:02:52;3;3;
44350;PMS5003;62766;62.622;17.912;2023-03-26T06:05:21;3;3;
44350;PMS5003;62766;62.622;17.912;2023-03-26T06:07:50;3;3;
44350;PMS5003;62766;62.622;17.912;2023-03-26T06:10:19;9;6;
44350;PMS5003;62766;62.622;17.912;2023-03-26T06:12:47;5;5;
44350;PMS5003;62766;62.622;17.912;2023-03-26T06:15:16;3;3;
44350;PMS5003;62766;62.622;17.912;2023-03-26T06:17:44;7;7;
44350;PMS5003;62766;62.622;17.912;2023-03-26T06:20:13;7;6;
44350;PMS5003;62766;62.622;17.912;2023-03-26T06:22:42;6;6;
44350;PMS5003;62766;62.622;17.912;2023-03-26T06:25:10;6;6;
44350;PMS5003;62766;62.622;17.912;2023-03-26T06:27:39;5;5;
44350;PMS5003;62766;62.622;17.912;2023-03-26T06:30:08;7;6;
44350;PMS5003;62766;62.622;17.912;2023-03-26T06:32:38;6;6;
44350;PMS5003;62766;62.622;17.912;2023-03-26T06:35:07;10;6;
44350;PMS5003;62766;62.622;17.912;2023-03-26T06:37:36;5;5;
44350;PMS5003;62766;62.622;17.912;2023-03-26T06:40:05;7;7;
44350;PMS5003;62766;62.622;17.912;2023-03-26T06:42:35;6;6;
44350;PMS5003;62766;62.622;17.912;2023-03-26T06:45:04;11;7;
44350;PMS5003;62766;62.622;17.912;2023-03-26T06:47:34;6;6;
44350;PMS5003;62766;62.622;17.912;2023-03-26T06:50:03;10;6;
44350;PMS5003;62766;62.622;17.912;2023-03-26T06:52:33;7;7;
44350;PMS5003;62766;62.622;17.912;2023-03-26T06:55:02;10;7;
44350;PMS5003;62766;62.622;17.912;2023-03-26T06:57:31;2;2;
44350;PMS5003;62766;62.622;17.912;2023-03-26T06:59:59;7;6;
44350;PMS5003;62766;62.622;17.912;2023-03-26T07:02:28;6;6;
44350;PMS5003;62766;62.622;17.912;2023-03-26T07:04:57;8;4;
44350;PMS5003;62766;62.622;17.912;2023-03-26T07:07:25;6;6;
44350;PMS5003;62766;62.622;17.912;2023-03-26T07:09:54;6;5;
44350;PMS5003;62766;62.622;17.912;2023-03-26T07:12:23;2;2;
44350;PMS5003;62766;62.622;17.912;2023-03-26T07:14:51;5;5;
44350;PMS5003;62766;62.622;17.912;2023-03-26T07:17:20;6;6;
44350;PMS5003;62766;62.622;17.912;2023-03-26T07:19:49;5;5;
44350;PMS5003;62766;62.622;17.912;2023-03-26T07:22:18;7;3;
44350;PMS5003;62766;62.622;17.912;2023-03-26T07:24:48;3;3;
44350;PMS5003;62766;62.622;17.912;2023-03-26T07:27:22;3;3;
44350;PMS5003;62766;62.622;17.912;2023-03-26T07:30:04;6;6;
44350;PMS5003;62766;62.622;17.912;2023-03-26T07:32:38;6;5;
44350;PMS5003;62766;62.622;17.912;2023-03-26T07:35:15;5;5;
44350;PMS5003;62766;62.622;17.912;2023-03-26T07:37:54;3;3;
44350;PMS5003;62766;62.622;17.912;2023-03-26T07:40:36;7;7;
44350;PMS5003;62766;62.622;17.912;2023-03-26T07:43:16;6;5;
44350;PMS5003;62766;62.622;17.912;2023-03-26T07:45:54;8;6;
44350;PMS5003;62766;62.622;17.912;2023-03-26T07:48:23;7;7;
44350;PMS5003;62766;62.622;17.912;2023-03-26T07:50:53;8;5;
44350;PMS5003;62766;62.622;17.912;2023-03-26T07:53:23;8;7;
44350;PMS5003;62766;62.622;17.912;2023-03-26T07:55:52;6;6;
44350;PMS5003;62766;62.622;17.912;2023-03-26T07:58:35;7;7;
44350;PMS5003;62766;62.622;17.912;2023-03-26T08:01:17;6;5;
44350;PMS5003;62766;62.622;17.912;2023-03-26T08:03:56;8;6;
44350;PMS5003;62766;62.622;17.912;2023-03-26T08:06:36;5;5;
44350;PMS5003;62766;62.622;17.912;2023-03-26T08:09:08;7;7;
44350;PMS5003;62766;62.622;17.912;2023-03-26T08:11:47;8;8;
44350;PMS5003;62766;62.622;17.912;2023-03-26T08:14:31;8;8;
44350;PMS5003;62766;62.622;17.912;2023-03-26T08:17:12;16;13;
44350;PMS5003;62766;62.622;17.912;2023-03-26T08:19:47;7;6;
44350;PMS5003;62766;62.622;17.912;2023-03-26T08:22:25;7;7;
44350;PMS5003;62766;62.622;17.912;2023-03-26T08:25:02;7;7;
44350;PMS5003;62766;62.622;17.912;2023-03-26T08:27:45;6;6;
44350;PMS5003;62766;62.622;17.912;2023-03-26T08:30:24;7;7;
44350;PMS5003;62766;62.622;17.912;2023-03-26T08:32:54;9;7;
44350;PMS5003;62766;62.622;17.912;2023-03-26T08:35:25;4;4;
44350;PMS5003;62766;62.622;17.912;2023-03-26T08:37:55;10;9;
44350;PMS5003;62766;62.622;17.912;2023-03-26T08:40:46;8;7;
44350;PMS5003;62766;62.622;17.912;2023-03-26T08:43:38;20;16;
44350;PMS5003;62766;62.622;17.912;2023-03-26T08:46:29;28;28;
44350;PMS5003;62766;62.622;17.912;2023-03-26T08:49:23;14;14;
44350;PMS5003;62766;62.622;17.912;2023-03-26T08:52:18;21;17;
44350;PMS5003;62766;62.622;17.912;2023-03-26T08:55:08;11;11;
44350;PMS5003;62766;62.622;17.912;2023-03-26T08:58:35;16;14;
44350;PMS5003;62766;62.622;17.912;2023-03-26T09:01:33;8;8;
44350;PMS5003;62766;62.622;17.912;2023-03-26T09:04:29;5;5;
44350;PMS5003;62766;62.622;17.912;2023-03-26T09:12:00;4;4;
44350;PMS5003;62766;62.622;17.912;2023-03-26T09:15:03;4;4;
44350;PMS5003;62766;62.622;17.912;2023-03-26T09:22:38;3;3;
44350;PMS5003;62766;62.622;17.912;2023-03-26T09:27:27;1;1;
44350;PMS5003;62766;62.622;17.912;2023-03-26T09:30:12;4;3;
44350;PMS5003;62766;62.622;17.912;2023-03-26T09:33:20;2;2;
44350;PMS5003;62766;62.622;17.912;2023-03-26T09:36:32;1;1;
44350;PMS5003;62766;62.622;17.912;2023-03-26T09:39:15;4;4;
44350;PMS5003;62766;62.622;17.912;2023-03-26T09:41:51;3;3;
44350;PMS5003;62766;62.622;17.912;2023-03-26T09:44:41;2;2;
44350;PMS5003;62766;62.622;17.912;2023-03-26T09:47:38;2;2;
44350;PMS5003;62766;62.622;17.912;2023-03-26T09:50:24;2;2;
44350;PMS5003;62766;62.622;17.912;2023-03-26T09:53:07;3;1;
44350;PMS5003;62766;62.622;17.912;2023-03-26T09:55:53;1;1;
44350;PMS5003;62766;62.622;17.912;2023-03-26T09:58:37;2;2;
44350;PMS5003;62766;62.622;17.912;2023-03-26T10:03:27;0;0;
44350;PMS5003;62766;62.622;17.912;2023-03-26T10:06:07;2;1;
44350;PMS5003;62766;62.622;17.912;2023-03-26T10:08:50;3;1;
44350;PMS5003;62766;62.622;17.912;2023-03-26T10:11:33;1;1;
44350;PMS5003;62766;62.622;17.912;2023-03-26T10:14:16;3;3;
44350;PMS5003;62766;62.622;17.912;2023-03-26T10:16:53;1;1;
44350;PMS5003;62766;62.622;17.912;2023-03-26T10:19:36;1;1;
44350;PMS5003;62766;62.622;17.912;2023-03-26T10:22:20;1;1;
44350;PMS5003;62766;62.622;17.912;2023-03-26T10:25:03;1;1;
44350;PMS5003;62766;62.622;17.912;2023-03-26T10:27:48;3;3;
44350;PMS5003;62766;62.622;17.912;2023-03-26T10:30:30;2;2;
44350;PMS5003;62766;62.622;17.912;2023-03-26T10:33:13;2;2;
44350;PMS5003;62766;62.622;17.912;2023-03-26T10:35:54;3;3;
44350;PMS5003;62766;62.622;17.912;2023-03-26T10:38:39;4;4;
44350;PMS5003;62766;62.622;17.912;2023-03-26T10:41:23;3;2;
44350;PMS5003;62766;62.622;17.912;2023-03-26T10:44:06;4;2;
44350;PMS5003;62766;62.622;17.912;2023-03-26T10:47:00;1;1;
44350;PMS5003;62766;62.622;17.912;2023-03-26T10:50:25;3;2;
44350;PMS5003;62766;62.622;17.912;2023-03-26T10:53:05;3;3;
44350;PMS5003;62766;62.622;17.912;2023-03-26T10:55:40;2;2;
44350;PMS5003;62766;62.622;17.912;2023-03-26T10:58:13;2;2;
44350;PMS5003;62766;62.622;17.912;2023-03-26T11:00:48;2;2;
44350;PMS5003;62766;62.622;17.912;2023-03-26T11:03:28;2;2;
44350;PMS5003;62766;62.622;17.912;2023-03-26T11:06:11;1;1;
44350;PMS5003;62766;62.622;17.912;2023-03-26T11:08:52;1;1;
44350;PMS5003;62766;62.622;17.912;2023-03-26T11:11:31;1;1;
44350;PMS5003;62766;62.622;17.912;2023-03-26T11:14:09;1;1;
44350;PMS5003;62766;62.622;17.912;2023-03-26T11:16:48;0;0;
44350;PMS5003;62766;62.622;17.912;2023-03-26T11:19:25;2;1;
44350;PMS5003;62766;62.622;17.912;2023-03-26T11:22:02;0;0;
44350;PMS5003;62766;62.622;17.912;2023-03-26T11:25:01;2;1;
44350;PMS5003;62766;62.622;17.912;2023-03-26T11:27:46;0;0;
44350;PMS5003;62766;62.622;17.912;2023-03-26T11:30:26;1;1;
44350;PMS5003;62766;62.622;17.912;2023-03-26T11:33:01;0;0;
44350;PMS5003;62766;62.622;17.912;2023-03-26T11:35:33;1;1;
44350;PMS5003;62766;62.622;17.912;2023-03-26T11:38:07;1;1;
44350;PMS5003;62766;62.622;17.912;2023-03-26T11:40:45;1;1;
44350;PMS5003;62766;62.622;17.912;2023-03-26T11:43:17;1;1;
44350;PMS5003;62766;62.622;17.912;2023-03-26T11:45:51;1;1;
44350;PMS5003;62766;62.622;17.912;2023-03-26T11:48:21;0;0;
44350;PMS5003;62766;62.622;17.912;2023-03-26T11:50:54;1;1;
44350;PMS5003;62766;62.622;17.912;2023-03-26T11:53:28;1;1;
44350;PMS5003;62766;62.622;17.912;2023-03-26T11:56:01;1;1;
44350;PMS5003;62766;62.622;17.912;2023-03-26T11:58:37;1;1;
44350;PMS5003;62766;62.622;17.912;2023-03-26T12:01:12;2;1;
44350;PMS5003;62766;62.622;17.912;2023-03-26T12:03:47;2;1;
44350;PMS5003;62766;62.622;17.912;2023-03-26T12:06:24;0;0;
44350;PMS5003;62766;62.622;17.912;2023-03-26T12:08:54;0;0;
44350;PMS5003;62766;62.622;17.912;2023-03-26T12:11:24;1;1;
44350;PMS5003;62766;62.622;17.912;2023-03-26T12:13:57;0;0;
44350;PMS5003;62766;62.622;17.912;2023-03-26T12:16:28;1;1;
44350;PMS5003;62766;62.622;17.912;2023-03-26T12:18:57;3;1;
44350;PMS5003;62766;62.622;17.912;2023-03-26T12:21:29;4;1;
44350;PMS5003;62766;62.622;17.912;2023-03-26T12:24:24;0;0;
44350;PMS5003;62766;62.622;17.912;2023-03-26T12:26:56;0;0;
44350;PMS5003;62766;62.622;17.912;2023-03-26T12:29:25;2;2;
44350;PMS5003;62766;62.622;17.912;2023-03-26T12:31:56;1;1;
44350;PMS5003;62766;62.622;17.912;2023-03-26T12:34:31;3;2;
44350;PMS5003;62766;62.622;17.912;2023-03-26T12:37:02;1;1;
44350;PMS5003;62766;62.622;17.912;2023-03-26T12:39:33;0;0;
44350;PMS5003;62766;62.622;17.912;2023-03-26T12:42:04;1;1;
44350;PMS5003;62766;62.622;17.912;2023-03-26T12:44:52;1;1;
44350;PMS5003;62766;62.622;17.912;2023-03-26T12:47:24;1;1;
44350;PMS5003;62766;62.622;17.912;2023-03-26T12:49:56;1;1;
44350;PMS5003;62766;62.622;17.912;2023-03-26T12:52:31;0;0;
44350;PMS5003;62766;62.622;17.912;2023-03-26T12:55:13;0;0;
44350;PMS5003;62766;62.622;17.912;2023-03-26T12:57:59;1;1;
44350;PMS5003;62766;62.622;17.912;2023-03-26T13:00:43;1;1;
44350;PMS5003;62766;62.622;17.912;2023-03-26T13:03:22;2;1;
44350;PMS5003;62766;62.622;17.912;2023-03-26T13:06:03;1;1;
44350;PMS5003;62766;62.622;17.912;2023-03-26T13:08:54;1;1;
44350;PMS5003;62766;62.622;17.912;2023-03-26T13:11:39;1;1;
44350;PMS5003;62766;62.622;17.912;2023-03-26T13:14:30;3;1;
44350;PMS5003;62766;62.622;17.912;2023-03-26T13:17:12;1;1;
44350;PMS5003;62766;62.622;17.912;2023-03-26T13:19:52;1;0;
44350;PMS5003;62766;62.622;17.912;2023-03-26T13:22:30;0;0;
44350;PMS5003;62766;62.622;17.912;2023-03-26T13:25:08;1;1;
44350;PMS5003;62766;62.622;17.912;2023-03-26T13:27:52;3;1;
44350;PMS5003;62766;62.622;17.912;2023-03-26T13:30:34;1;1;
44350;PMS5003;62766;62.622;17.912;2023-03-26T13:33:13;0;0;
44350;PMS5003;62766;62.622;17.912;2023-03-26T13:35:55;1;1;
44350;PMS5003;62766;62.622;17.912;2023-03-26T13:38:34;1;1;
44350;PMS5003;62766;62.622;17.912;2023-03-26T13:41:12;1;1;
44350;PMS5003;62766;62.622;17.912;2023-03-26T13:43:54;2;2;
44350;PMS5003;62766;62.622;17.912;2023-03-26T13:46:29;2;2;
44350;PMS5003;62766;62.622;17.912;2023-03-26T13:49:03;1;1;
44350;PMS5003;62766;62.622;17.912;2023-03-26T13:51:38;2;2;
44350;PMS5003;62766;62.622;17.912;2023-03-26T13:54:14;1;1;
44350;PMS5003;62766;62.622;17.912;2023-03-26T13:56:48;3;2;
44350;PMS5003;62766;62.622;17.912;2023-03-26T13:59:23;2;2;
44350;PMS5003;62766;62.622;17.912;2023-03-26T14:01:59;3;2;
44350;PMS5003;62766;62.622;17.912;2023-03-26T14:04:32;2;2;
44350;PMS5003;62766;62.622;17.912;2023-03-26T14:07:07;1;1;
44350;PMS5003;62766;62.622;17.912;2023-03-26T14:09:41;2;2;
44350;PMS5003;62766;62.622;17.912;2023-03-26T14:12:17;3;3;
44350;PMS5003;62766;62.622;17.912;2023-03-26T14:14:56;2;1;
44350;PMS5003;62766;62.622;17.912;2023-03-26T14:17:29;2;2;
44350;PMS5003;62766;62.622;17.912;2023-03-26T14:24:47;1;1;
44350;PMS5003;62766;62.622;17.912;2023-03-26T14:27:31;3;1;
44350;PMS5003;62766;62.622;17.912;2023-03-26T14:30:19;3;2;
44350;PMS5003;62766;62.622;17.912;2023-03-26T14:33:01;1;1;
44350;PMS5003;62766;62.622;17.912;2023-03-26T14:35:50;1;1;
44350;PMS5003;62766;62.622;17.912;2023-03-26T14:38:31;2;2;
44350;PMS5003;62766;62.622;17.912;2023-03-26T14:41:23;3;1;
44350;PMS5003;62766;62.622;17.912;2023-03-26T14:44:10;2;1;
44350;PMS5003;62766;62.622;17.912;2023-03-26T14:47:09;1;1;
44350;PMS5003;62766;62.622;17.912;2023-03-26T14:49:50;1;1;
44350;PMS5003;62766;62.622;17.912;2023-03-26T14:52:45;1;1;
44350;PMS5003;62766;62.622;17.912;2023-03-26T14:55:17;2;2;
44350;PMS5003;62766;62.622;17.912;2023-03-26T14:58:09;1;1;
44350;PMS5003;62766;62.622;17.912;2023-03-26T15:01:28;2;2;
44350;PMS5003;62766;62.622;17.912;2023-03-26T15:07:25;1;1;
44350;PMS5003;62766;62.622;17.912;2023-03-26T15:10:10;2;2;
44350;PMS5003;62766;62.622;17.912;2023-03-26T15:12:53;2;2;
44350;PMS5003;62766;62.622;17.912;2023-03-26T15:15:52;3;1;
44350;PMS5003;62766;62.622;17.912;2023-03-26T15:18:48;1;1;
44350;PMS5003;62766;62.622;17.912;2023-03-26T15:23:48;2;2;
44350;PMS5003;62766;62.622;17.912;2023-03-26T15:26:49;2;2;
44350;PMS5003;62766;62.622;17.912;2023-03-26T15:30:13;2;2;
44350;PMS5003;62766;62.622;17.912;2023-03-26T15:33:06;1;1;
44350;PMS5003;62766;62.622;17.912;2023-03-26T15:35:55;3;3;
44350;PMS5003;62766;62.622;17.912;2023-03-26T15:38:49;1;1;
44350;PMS5003;62766;62.622;17.912;2023-03-26T15:42:40;1;1;
44350;PMS5003;62766;62.622;17.912;2023-03-26T15:45:25;2;2;
44350;PMS5003;62766;62.622;17.912;2023-03-26T15:48:05;2;2;
44350;PMS5003;62766;62.622;17.912;2023-03-26T15:50:48;3;2;
44350;PMS5003;62766;62.622;17.912;2023-03-26T15:53:24;1;1;
44350;PMS5003;62766;62.622;17.912;2023-03-26T15:56:06;3;3;
44350;PMS5003;62766;62.622;17.912;2023-03-26T15:58:43;2;2;
44350;PMS5003;62766;62.622;17.912;2023-03-26T16:03:23;2;2;
44350;PMS5003;62766;62.622;17.912;2023-03-26T16:06:03;2;2;
44350;PMS5003;62766;62.622;17.912;2023-03-26T16:09:19;2;2;
44350;PMS5003;62766;62.622;17.912;2023-03-26T16:12:24;1;1;
44350;PMS5003;62766;62.622;17.912;2023-03-26T16:15:19;2;2;
44350;PMS5003;62766;62.622;17.912;2023-03-26T16:19:24;2;2;
44350;PMS5003;62766;62.622;17.912;2023-03-26T16:22:02;2;2;
44350;PMS5003;62766;62.622;17.912;2023-03-26T16:24:32;2;2;
44350;PMS5003;62766;62.622;17.912;2023-03-26T16:27:06;2;2;
44350;PMS5003;62766;62.622;17.912;2023-03-26T16:30:15;3;3;
44350;PMS5003;62766;62.622;17.912;2023-03-26T16:32:57;3;3;
44350;PMS5003;62766;62.622;17.912;2023-03-26T16:35:38;5;3;
44350;PMS5003;62766;62.622;17.912;2023-03-26T16:38:22;2;2;
44350;PMS5003;62766;62.622;17.912;2023-03-26T16:40:55;3;3;
44350;PMS5003;62766;62.622;17.912;2023-03-26T16:43:39;2;2;
44350;PMS5003;62766;62.622;17.912;2023-03-26T16:46:15;2;2;
44350;PMS5003;62766;62.622;17.912;2023-03-26T16:48:55;3;2;
44350;PMS5003;62766;62.622;17.912;2023-03-26T16:51:33;2;2;
44350;PMS5003;62766;62.622;17.912;2023-03-26T16:54:21;3;3;
44350;PMS5003;62766;62.622;17.912;2023-03-26T16:56:54;4;4;
44350;PMS5003;62766;62.622;17.912;2023-03-26T16:59:38;4;4;
44350;PMS5003;62766;62.622;17.912;2023-03-26T17:02:22;5;5;
44350;PMS5003;62766;62.622;17.912;2023-03-26T17:05:05;5;5;
44350;PMS5003;62766;62.622;17.912;2023-03-26T17:07:46;10;8;
44350;PMS5003;62766;62.622;17.912;2023-03-26T17:10:27;11;10;
44350;PMS5003;62766;62.622;17.912;2023-03-26T17:13:01;4;3;
44350;PMS5003;62766;62.622;17.912;2023-03-26T17:15:40;5;5;
44350;PMS5003;62766;62.622;17.912;2023-03-26T17:18:19;3;3;
44350;PMS5003;62766;62.622;17.912;2023-03-26T17:20:56;4;4;
44350;PMS5003;62766;62.622;17.912;2023-03-26T17:23:31;7;7;
44350;PMS5003;62766;62.622;17.912;2023-03-26T17:26:11;4;4;
44350;PMS5003;62766;62.622;17.912;2023-03-26T17:28:59;5;4;
44350;PMS5003;62766;62.622;17.912;2023-03-26T17:31:39;7;7;
44350;PMS5003;62766;62.622;17.912;2023-03-26T17:34:53;8;5;
44350;PMS5003;62766;62.622;17.912;2023-03-26T17:37:31;5;5;
44350;PMS5003;62766;62.622;17.912;2023-03-26T17:41:12;4;4;
44350;PMS5003;62766;62.622;17.912;2023-03-26T17:43:43;5;5;
44350;PMS5003;62766;62.622;17.912;2023-03-26T17:46:18;5;5;
44350;PMS5003;62766;62.622;17.912;2023-03-26T17:48:55;19;17;
44350;PMS5003;62766;62.622;17.912;2023-03-26T17:51:33;25;25;
44350;PMS5003;62766;62.622;17.912;2023-03-26T17:54:06;13;12;
44350;PMS5003;62766;62.622;17.912;2023-03-26T17:56:42;4;3;
44350;PMS5003;62766;62.622;17.912;2023-03-26T17:59:12;7;7;
44350;PMS5003;62766;62.622;17.912;2023-03-26T18:01:46;30;26;
44350;PMS5003;62766;62.622;17.912;2023-03-26T18:04:16;20;18;
44350;PMS5003;62766;62.622;17.912;2023-03-26T18:06:52;8;8;
44350;PMS5003;62766;62.622;17.912;2023-03-26T18:09:40;9;8;